Terminal Aerodrome Forecast
Issued by NWS Sterling, VA

Home | Current Version | Previous Version | Text Only | Print | Product List | Glossary On
Versions: 1 2 3 4 5 6 7 8 9 10 11 12 13 14 15 16 17 18 19
558
FTUS41 KLWX 052321
TAFCHO
TAF
KCHO 052321Z 0600/0624 VRB03KT P6SM OVC150
     FM060600 00000KT P6SM -RA OVC130
     FM061200 06004KT 4SM -RA BR OVC030
     FM061300 06005KT 1/4SM -RA FG OVC003
     FM062200 02005KT 1/2SM -RA OVC003=

USA.gov is the U.S. government's official web portal to all federal, state and local government web resources and services.